KDRO/DRO METAR and TAF weather

Enter ICAO airport designator
Station Type Date Time Source
KDRO METAR 2019/04/18 19:53 UTC NOAA

KDRO 181953Z AUTO 25010G19KT 10SM CLR 19/M09 A3019 RMK AO2 SLP166 T01941094


Station Type Date Time Source
KDRO Decoded METAR 2019/04/18 19:53 UTC NOAA

DURANGO-LA PLATA COUNTY AIRPORT , CO, United States (KDRO) 37-09N 107-46W 2035M
Apr 18, 2019 - 03:53 PM EDT / 2019.04.18 1953 UTC
Wind: from the WSW (250 degrees) at 12 MPH (10 KT) gusting to 22 MPH (19 KT):0
Visibility: 10 mile(s):0
Sky conditions: clear
Temperature: 66.9 F (19.4 C)
Dew Point: 15.1 F (-9.4 C)
Relative Humidity: 13%
Pressure (altimeter): 30.19 in. Hg (1022 hPa)
ob: KDRO 181953Z AUTO 25010G19KT 10SM CLR 19/M09 A3019 RMK AO2 SLP166 T01941094
cycle: 20

Station Type Date Time Source
KDRO TAF 2019/04/18 18:33 UTC NOAA

TAF
AMD KDRO 181731Z 1818/1918 31006KT P6SM SKC
FM182000 27014G22KT P6SM SKC
FM190200 33010KT P6SM SKC
FM190400 02006KT P6SM SKC
FM191500 00000KT P6SM SKC

Example: see airport list